createdAt,value
2022-11-12T00:01:54.436Z,17.02
2022-11-12T00:04:39.645Z,20.05
2022-11-12T00:07:24.538Z,13.45
2022-11-12T00:10:09.906Z,13.73
2022-11-12T00:12:55.512Z,15.88
2022-11-12T00:15:40.963Z,15.43
2022-11-12T00:18:26.206Z,15.65
2022-11-12T00:21:11.310Z,16.33
2022-11-12T00:23:56.290Z,13.80
2022-11-12T00:26:41.326Z,16.88
2022-11-12T00:29:26.642Z,21.70
2022-11-12T00:32:12.491Z,18.92
2022-11-12T00:35:00.278Z,21.40
2022-11-12T00:37:47.810Z,13.45
2022-11-12T00:40:32.982Z,20.75
2022-11-12T00:43:17.821Z,18.35
2022-11-12T00:46:03.307Z,19.17
2022-11-12T00:48:48.020Z,15.13
2022-11-12T00:51:32.994Z,15.05
2022-11-12T00:54:18.213Z,14.75
2022-11-12T00:57:03.422Z,12.50
2022-11-12T00:59:48.623Z,11.57
2022-11-12T01:02:40.675Z,13.68
2022-11-12T01:05:27.380Z,11.73
2022-11-12T01:08:12.352Z,15.23
2022-11-12T01:11:04.308Z,14.07
2022-11-12T01:13:55.664Z,19.17
2022-11-12T01:16:42.871Z,19.23
2022-11-12T01:19:28.049Z,20.65
2022-11-12T01:22:13.018Z,22.42
2022-11-12T01:24:57.915Z,19.58
2022-11-12T01:27:43.120Z,18.20
2022-11-12T01:30:28.231Z,15.82
2022-11-12T01:33:13.623Z,30.83
2022-11-12T01:35:59.725Z,23.85
2022-11-12T01:38:46.093Z,22.15
2022-11-12T01:41:34.869Z,16.38
2022-11-12T01:44:25.134Z,19.85
2022-11-12T01:47:17.281Z,19.65
2022-11-12T01:50:17.137Z,23.80
2022-11-12T01:53:06.282Z,12.60
2022-11-12T01:55:52.959Z,15.88
2022-11-12T01:58:40.059Z,17.02
2022-11-12T02:01:25.827Z,16.17
2022-11-12T02:04:11.336Z,19.38
2022-11-12T02:06:57.728Z,16.25
2022-11-12T02:09:42.899Z,13.45
2022-11-12T02:12:46.775Z,15.75
2022-11-12T02:15:32.006Z,15.45
2022-11-12T02:18:17.532Z,12.88
2022-11-12T02:21:08.862Z,14.13
2022-11-12T02:24:17.637Z,13.93
2022-11-12T02:27:04.601Z,15.55
2022-11-12T02:29:49.634Z,13.23
2022-11-12T02:32:34.574Z,17.40
2022-11-12T02:35:19.981Z,13.82
2022-11-12T02:38:05.854Z,14.50
2022-11-12T02:40:51.987Z,13.98
2022-11-12T02:43:37.680Z,11.82
2022-11-12T02:46:23.235Z,12.43
2022-11-12T02:49:08.355Z,12.23
2022-11-12T02:51:53.556Z,12.15
2022-11-12T02:54:38.609Z,12.25
2022-11-12T02:57:23.586Z,14.85
2022-11-12T03:00:12.048Z,11.75
2022-11-12T03:03:00.192Z,11.65
2022-11-12T03:05:46.138Z,10.70
2022-11-12T03:08:31.329Z,13.43
2022-11-12T03:11:17.294Z,13.57
2022-11-12T03:14:02.519Z,13.48
2022-11-12T03:16:47.707Z,13.88
2022-11-12T03:19:32.648Z,13.68
2022-11-12T03:22:17.744Z,13.38
2022-11-12T03:25:02.580Z,12.55
2022-11-12T03:27:47.907Z,16.05
2022-11-12T03:30:35.544Z,14.68
2022-11-12T03:33:20.592Z,13.23
2022-11-12T03:36:05.848Z,13.43
2022-11-12T03:38:50.651Z,13.30
2022-11-12T03:41:35.667Z,16.15
2022-11-12T03:44:20.668Z,13.15
2022-11-12T03:47:05.969Z,14.68
2022-11-12T03:49:51.079Z,14.80
2022-11-12T03:52:36.630Z,16.40
2022-11-12T03:55:23.752Z,13.45
2022-11-12T03:58:09.135Z,15.43
2022-11-12T04:00:54.294Z,13.18
2022-11-12T04:03:39.259Z,15.38
2022-11-12T04:06:42.942Z,16.13
2022-11-12T04:09:28.096Z,17.98
2022-11-12T04:12:31.849Z,16.55
2022-11-12T04:15:17.058Z,14.20
2022-11-12T04:18:20.889Z,16.55
2022-11-12T04:21:26.823Z,19.83
2022-11-12T04:24:32.021Z,16.48
2022-11-12T04:27:20.851Z,16.85
2022-11-12T04:30:21.375Z,13.82
2022-11-12T04:33:06.512Z,16.00
2022-11-12T04:35:51.424Z,16.05
2022-11-12T04:38:36.685Z,16.17
2022-11-12T04:41:40.241Z,16.45
2022-11-12T04:44:43.969Z,14.37
2022-11-12T04:47:37.977Z,16.35
2022-11-12T04:50:23.126Z,15.75
2022-11-12T04:53:08.263Z,16.85
2022-11-12T04:55:54.986Z,15.20
2022-11-12T04:58:40.001Z,14.30
2022-11-12T05:01:24.939Z,15.82
2022-11-12T05:04:09.989Z,14.00
2022-11-12T05:06:58.810Z,14.60
2022-11-12T05:09:44.260Z,16.60
2022-11-12T05:12:29.240Z,30.95
2022-11-12T05:15:14.484Z,12.60
2022-11-12T05:17:59.365Z,20.70
2022-11-12T05:20:44.239Z,15.80
2022-11-12T05:23:29.272Z,14.85
2022-11-12T05:26:14.242Z,14.05
2022-11-12T05:28:59.009Z,17.45
2022-11-12T05:31:44.086Z,14.73
2022-11-12T05:34:29.523Z,14.35
2022-11-12T05:37:15.497Z,15.77
2022-11-12T05:40:01.096Z,16.20
2022-11-12T05:42:46.032Z,16.48
2022-11-12T05:45:31.323Z,18.60
2022-11-12T05:48:18.971Z,19.88
2022-11-12T05:51:15.215Z,20.02
2022-11-12T05:54:01.265Z,16.88
2022-11-12T05:56:46.564Z,19.83
2022-11-12T05:59:31.620Z,20.83
2022-11-12T06:02:16.668Z,18.00
2022-11-12T06:05:01.671Z,19.02
2022-11-12T06:07:46.859Z,19.52
2022-11-12T06:10:33.292Z,16.10
2022-11-12T06:13:19.343Z,19.75
2022-11-12T06:16:04.684Z,20.63
2022-11-12T06:18:49.774Z,19.42
2022-11-12T06:21:34.557Z,17.25
2022-11-12T06:24:19.566Z,17.17
2022-11-12T06:27:04.554Z,20.23
2022-11-12T06:29:49.852Z,17.58
2022-11-12T06:32:35.558Z,21.02
2022-11-12T06:35:20.763Z,17.05
2022-11-12T06:38:05.912Z,18.88
2022-11-12T06:40:50.731Z,15.10
2022-11-12T06:43:36.547Z,17.80
2022-11-12T06:46:21.369Z,19.35
2022-11-12T06:49:06.430Z,18.63
2022-11-12T06:51:51.764Z,19.45
2022-11-12T06:54:36.988Z,16.63
2022-11-12T06:57:22.030Z,24.05
2022-11-12T07:00:08.508Z,18.08
2022-11-12T07:02:53.753Z,16.20
2022-11-12T07:05:39.231Z,18.25
2022-11-12T07:08:24.552Z,18.83
2022-11-12T07:11:10.224Z,17.55
2022-11-12T07:13:55.014Z,16.42
2022-11-12T07:16:39.969Z,16.83
2022-11-12T07:19:24.786Z,16.40
2022-11-12T07:22:09.648Z,19.23
2022-11-12T07:24:54.568Z,17.02
2022-11-12T07:27:39.869Z,14.23
2022-11-12T07:30:25.120Z,21.02
2022-11-12T07:33:09.933Z,14.88
2022-11-12T07:36:04.616Z,15.80
2022-11-12T07:38:55.334Z,15.75
2022-11-12T07:41:40.554Z,14.70
2022-11-12T07:44:26.071Z,14.98
2022-11-12T07:47:11.975Z,14.63
2022-11-12T07:49:57.287Z,30.77
2022-11-12T07:52:42.327Z,12.77
2022-11-12T07:55:27.270Z,14.57
2022-11-12T07:58:12.130Z,14.90
2022-11-12T08:00:57.123Z,13.68
2022-11-12T08:03:42.482Z,18.95
2022-11-12T08:06:28.022Z,13.50
2022-11-12T08:09:13.413Z,13.52
2022-11-12T08:11:58.512Z,15.65
2022-11-12T08:14:43.391Z,13.25
2022-11-12T08:17:28.225Z,14.57
2022-11-12T08:20:13.451Z,11.55
2022-11-12T08:23:01.886Z,17.90
2022-11-12T08:25:47.134Z,12.73
2022-11-12T08:28:34.134Z,14.35
2022-11-12T08:31:22.116Z,11.73
2022-11-12T08:34:15.181Z,16.83
2022-11-12T08:37:03.597Z,11.48
2022-11-12T08:39:48.859Z,13.70
2022-11-12T08:42:34.044Z,14.05
2022-11-12T08:45:18.958Z,12.55
2022-11-12T08:48:09.581Z,11.98
2022-11-12T08:50:55.526Z,12.35
2022-11-12T08:53:40.642Z,13.18
2022-11-12T08:56:25.643Z,10.32
2022-11-12T08:59:10.630Z,12.02
2022-11-12T09:01:56.219Z,13.02
2022-11-12T09:04:41.334Z,11.57
2022-11-12T09:07:48.972Z,10.20
2022-11-12T09:10:32.170Z,13.15
2022-11-12T09:13:18.477Z,10.98
2022-11-12T09:16:06.147Z,11.85
2022-11-12T09:18:51.122Z,12.30
2022-11-12T09:21:36.032Z,11.43
2022-11-12T09:24:21.156Z,11.77
2022-11-12T09:27:06.069Z,12.30
2022-11-12T09:29:51.270Z,12.88
2022-11-12T09:32:36.362Z,13.32
2022-11-12T09:35:22.500Z,18.15
2022-11-12T09:38:07.351Z,15.57
2022-11-12T09:40:52.193Z,14.25
2022-11-12T09:44:03.443Z,11.45
2022-11-12T09:46:53.719Z,14.02
2022-11-12T09:49:43.102Z,14.00
2022-11-12T09:52:30.055Z,18.88
2022-11-12T09:55:22.414Z,20.35
2022-11-12T09:58:19.391Z,17.40
2022-11-12T10:01:31.890Z,18.30
2022-11-12T10:04:29.162Z,27.02
2022-11-12T10:07:25.462Z,21.65
2022-11-12T10:10:16.607Z,13.93
2022-11-12T10:13:20.666Z,19.08
2022-11-12T10:16:37.672Z,13.02
2022-11-12T10:19:34.579Z,14.63
2022-11-12T10:22:42.379Z,16.50
2022-11-12T10:25:28.135Z,13.73
2022-11-12T10:28:38.528Z,14.98
2022-11-12T10:31:24.114Z,16.00
2022-11-12T10:34:18.704Z,21.25
2022-11-12T10:37:13.701Z,19.23
2022-11-12T10:39:58.753Z,16.08
2022-11-12T10:43:05.596Z,14.80
2022-11-12T10:45:51.035Z,13.88
2022-11-12T10:48:36.694Z,13.85
2022-11-12T10:51:28.544Z,16.73
2022-11-12T10:54:27.815Z,14.70
2022-11-12T10:57:25.414Z,16.52
2022-11-12T11:00:13.273Z,15.98
2022-11-12T11:02:59.556Z,16.63
2022-11-12T11:05:53.616Z,17.17
2022-11-12T11:08:44.566Z,15.25
2022-11-12T11:11:30.949Z,18.38
2022-11-12T11:14:21.915Z,18.55
2022-11-12T11:17:16.506Z,14.73
2022-11-12T11:20:02.953Z,19.42
2022-11-12T11:22:56.279Z,15.55
2022-11-12T11:25:43.220Z,17.17
2022-11-12T11:28:48.596Z,16.40
2022-11-12T11:31:48.922Z,16.23
2022-11-12T11:34:46.143Z,16.58
2022-11-12T11:37:37.867Z,16.95
2022-11-12T11:40:31.545Z,17.17
2022-11-12T11:43:21.297Z,18.73
2022-11-12T11:46:31.410Z,18.58
2022-11-12T11:49:31.666Z,24.33
2022-11-12T11:52:34.823Z,16.58
2022-11-12T11:55:36.227Z,15.45
2022-11-12T11:58:59.212Z,15.68
2022-11-12T12:02:16.264Z,14.23
2022-11-12T12:05:21.877Z,15.13
2022-11-12T12:08:18.388Z,16.35
2022-11-12T12:11:14.939Z,15.07
2022-11-12T12:14:03.046Z,15.80
2022-11-12T12:16:52.386Z,16.73
2022-11-12T12:19:37.233Z,16.52
2022-11-12T12:22:46.965Z,16.60
2022-11-12T12:25:35.879Z,17.73
2022-11-12T12:28:35.411Z,17.38
2022-11-12T12:31:29.456Z,17.05
2022-11-12T12:34:33.211Z,17.88
2022-11-12T12:37:35.218Z,17.70
2022-11-12T12:40:32.587Z,17.88
2022-11-12T12:43:41.652Z,18.40
2022-11-12T12:46:30.494Z,17.60
2022-11-12T12:49:28.412Z,17.45
2022-11-12T12:52:15.287Z,17.88
2022-11-12T12:55:00.270Z,16.35
2022-11-12T12:57:45.520Z,18.05
2022-11-12T13:00:40.952Z,18.35
2022-11-12T13:03:44.636Z,18.20
2022-11-12T13:06:35.668Z,21.73
2022-11-12T13:09:25.751Z,17.95
2022-11-12T13:12:10.557Z,16.77
2022-11-12T13:15:15.792Z,15.60
2022-11-12T13:18:00.727Z,16.75
2022-11-12T13:21:10.530Z,16.23
2022-11-12T13:24:08.902Z,16.95
2022-11-12T13:26:56.913Z,23.48
2022-11-12T13:29:43.870Z,16.90
2022-11-12T13:32:38.179Z,18.55
2022-11-12T13:35:35.260Z,19.20
2022-11-12T13:38:20.310Z,18.92
2022-11-12T13:41:51.998Z,20.33
2022-11-12T13:44:37.532Z,19.65
2022-11-12T13:47:24.895Z,19.95
2022-11-12T13:50:15.172Z,18.67
2022-11-12T13:53:01.052Z,18.65
2022-11-12T13:55:50.628Z,18.40
2022-11-12T13:58:36.308Z,19.92
2022-11-12T14:01:24.243Z,16.98
2022-11-12T14:04:18.963Z,18.05
2022-11-12T14:07:29.877Z,18.30
2022-11-12T14:10:56.639Z,18.38
2022-11-12T14:14:15.999Z,19.27
2022-11-12T14:17:26.273Z,20.73
2022-11-12T14:20:41.302Z,18.15
2022-11-12T14:23:26.591Z,20.30
2022-11-12T14:26:12.887Z,22.15
2022-11-12T14:28:58.174Z,19.33
2022-11-12T14:31:43.607Z,19.52
2022-11-12T14:34:33.991Z,20.25
2022-11-12T14:37:39.885Z,20.42
2022-11-12T14:40:29.864Z,21.45
2022-11-12T14:43:28.166Z,19.08
2022-11-12T14:46:22.625Z,18.48
2022-11-12T14:49:16.628Z,18.92
2022-11-12T14:52:22.755Z,18.08
2022-11-12T14:55:12.225Z,18.70
2022-11-12T14:57:59.581Z,19.23
2022-11-12T15:00:46.797Z,19.20
2022-11-12T15:03:32.784Z,19.73
2022-11-12T15:06:29.639Z,21.70
2022-11-12T15:09:18.741Z,18.83
2022-11-12T15:12:07.230Z,22.23
2022-11-12T15:14:53.595Z,27.30
2022-11-12T15:17:38.590Z,19.63
2022-11-12T15:20:24.072Z,19.85
2022-11-12T15:23:17.730Z,20.17
2022-11-12T15:26:03.402Z,20.27
2022-11-12T15:29:02.432Z,22.63
2022-11-12T15:31:50.422Z,20.67
2022-11-12T15:34:41.368Z,23.80
2022-11-12T15:37:29.793Z,26.08
2022-11-12T15:40:20.020Z,27.83
2022-11-12T15:43:13.892Z,27.83
2022-11-12T15:45:59.495Z,25.77
2022-11-12T15:48:44.863Z,22.63
2022-11-12T15:51:30.274Z,23.90
2022-11-12T15:54:15.593Z,26.70
2022-11-12T15:57:00.571Z,25.30
2022-11-12T15:59:51.235Z,32.50
2022-11-12T16:02:36.239Z,28.27
2022-11-12T16:05:21.236Z,26.40
2022-11-12T16:08:06.204Z,25.83
2022-11-12T16:10:51.419Z,23.60
2022-11-12T16:13:36.536Z,23.00
2022-11-12T16:16:21.874Z,21.65
2022-11-12T16:19:14.838Z,25.05
2022-11-12T16:22:01.334Z,24.10
2022-11-12T16:24:46.547Z,27.33
2022-11-12T16:27:31.680Z,23.15
2022-11-12T16:30:25.376Z,24.00
2022-11-12T16:33:12.237Z,21.25
2022-11-12T16:35:57.040Z,23.67
2022-11-12T16:38:42.200Z,25.58
2022-11-12T16:41:27.163Z,25.38
2022-11-12T16:44:12.064Z,22.92
2022-11-12T16:46:57.275Z,26.63
2022-11-12T16:49:42.793Z,29.83
2022-11-12T16:52:27.756Z,26.73
2022-11-12T16:55:12.852Z,31.52
2022-11-12T16:57:57.932Z,31.88
2022-11-12T17:00:45.360Z,25.77
2022-11-12T17:03:30.850Z,26.65
2022-11-12T17:06:16.369Z,26.05
2022-11-12T17:09:01.234Z,26.20
2022-11-12T17:11:46.114Z,26.63
2022-11-12T17:14:31.337Z,37.80
2022-11-12T17:17:16.604Z,39.88
2022-11-12T17:20:02.100Z,35.30
2022-11-12T17:22:47.096Z,35.50
2022-11-12T17:25:31.937Z,40.22
2022-11-12T17:28:16.833Z,27.17
2022-11-12T17:31:13.088Z,29.27
2022-11-12T17:33:58.410Z,29.15
2022-11-12T17:36:44.153Z,25.27
2022-11-12T17:39:29.836Z,30.63
2022-11-12T17:42:14.824Z,32.17
2022-11-12T17:45:00.013Z,26.73
2022-11-12T17:47:45.132Z,25.48
2022-11-12T17:50:30.168Z,24.50
2022-11-12T17:53:15.590Z,27.30
2022-11-12T17:56:01.541Z,25.35
2022-11-12T17:58:47.369Z,28.95
2022-11-12T18:01:33.938Z,29.02
2022-11-12T18:04:19.054Z,26.10
2022-11-12T18:07:04.117Z,49.90
2022-11-12T18:09:49.170Z,23.92
2022-11-12T18:12:34.327Z,34.30
2022-11-12T18:15:19.188Z,23.77
2022-11-12T18:18:04.538Z,23.42
2022-11-12T18:20:50.695Z,29.70
2022-11-12T18:23:39.994Z,23.00
2022-11-12T18:26:25.329Z,35.08
2022-11-12T18:29:12.495Z,42.28
2022-11-12T18:31:57.820Z,27.08
2022-11-12T18:34:44.554Z,26.10
2022-11-12T18:37:29.827Z,22.75
2022-11-12T18:40:15.740Z,51.45
2022-11-12T18:43:00.828Z,25.67
2022-11-12T18:45:53.793Z,22.15
2022-11-12T18:48:40.328Z,22.50
2022-11-12T18:51:25.596Z,27.02
2022-11-12T18:54:10.811Z,37.38
2022-11-12T18:56:56.090Z,31.10
2022-11-12T18:59:41.395Z,22.25
2022-11-12T19:02:26.359Z,26.35
2022-11-12T19:05:11.379Z,25.40
2022-11-12T19:07:56.646Z,24.63
2022-11-12T19:10:42.085Z,23.80
2022-11-12T19:13:27.880Z,24.08
2022-11-12T19:16:16.945Z,21.60
2022-11-12T19:19:02.056Z,25.05
2022-11-12T19:21:48.777Z,24.63
2022-11-12T19:24:33.978Z,23.33
2022-11-12T19:27:19.048Z,23.70
2022-11-12T19:30:05.960Z,24.38
2022-11-12T19:32:51.207Z,21.30
2022-11-12T19:35:36.079Z,22.83
2022-11-12T19:38:21.264Z,25.17
2022-11-12T19:41:18.752Z,30.98
2022-11-12T19:44:04.065Z,24.05
2022-11-12T19:46:49.244Z,25.58
2022-11-12T19:49:34.099Z,16.67
2022-11-12T19:52:19.619Z,22.65
2022-11-12T19:55:04.853Z,21.45
2022-11-12T19:57:49.865Z,19.83
2022-11-12T20:00:35.605Z,15.63
2022-11-12T20:03:24.872Z,17.42
2022-11-12T20:06:17.113Z,42.13
2022-11-12T20:09:04.043Z,30.60
2022-11-12T20:11:50.704Z,48.58
2022-11-12T20:14:35.817Z,37.03
2022-11-12T20:17:21.276Z,50.20
2022-11-12T20:20:07.474Z,50.38
2022-11-12T20:22:52.745Z,30.58
2022-11-12T20:25:37.934Z,45.92
2022-11-12T20:28:23.068Z,23.23
2022-11-12T20:31:10.630Z,16.17
2022-11-12T20:33:57.019Z,31.08
2022-11-12T20:36:42.044Z,20.75
2022-11-12T20:39:26.988Z,23.65
2022-11-12T20:42:12.197Z,25.33
2022-11-12T20:44:57.424Z,23.70
2022-11-12T20:47:42.376Z,33.70
2022-11-12T20:50:27.283Z,23.45
2022-11-12T20:53:12.714Z,21.13
2022-11-12T20:56:07.742Z,20.35
2022-11-12T20:58:52.965Z,18.67
2022-11-12T21:01:38.363Z,16.90
2022-11-12T21:04:24.609Z,24.83
2022-11-12T21:07:09.632Z,17.77
2022-11-12T21:09:54.809Z,28.23
2022-11-12T21:12:39.624Z,21.83
2022-11-12T21:15:24.663Z,20.67
2022-11-12T21:18:09.644Z,19.58
2022-11-12T21:21:07.555Z,16.40
2022-11-12T21:23:53.912Z,24.10
2022-11-12T21:26:39.486Z,20.88
2022-11-12T21:29:24.475Z,16.90
2022-11-12T21:32:09.215Z,15.30
2022-11-12T21:34:55.677Z,17.92
2022-11-12T21:37:40.364Z,38.00
2022-11-12T21:40:25.417Z,21.30
2022-11-12T21:43:10.591Z,23.40
2022-11-12T21:45:55.789Z,27.52
2022-11-12T21:48:41.263Z,17.83
2022-11-12T21:51:29.906Z,16.92
2022-11-12T21:54:15.107Z,17.55
2022-11-12T21:57:00.088Z,14.65
2022-11-12T21:59:45.692Z,17.00
2022-11-12T22:02:31.100Z,19.77
2022-11-12T22:05:16.253Z,28.40
2022-11-12T22:08:01.462Z,15.60
2022-11-12T22:10:46.194Z,16.42
2022-11-12T22:13:31.801Z,13.95
2022-11-12T22:16:25.194Z,15.20
2022-11-12T22:19:11.295Z,20.33
2022-11-12T22:21:56.412Z,15.85
2022-11-12T22:24:41.503Z,16.67
2022-11-12T22:27:26.674Z,20.63
2022-11-12T22:30:12.320Z,12.40
2022-11-12T22:32:57.302Z,18.67
2022-11-12T22:35:42.161Z,20.08
2022-11-12T22:38:27.588Z,13.60
2022-11-12T22:41:18.667Z,18.88
2022-11-12T22:44:03.678Z,19.13
2022-11-12T22:46:48.950Z,16.88
2022-11-12T22:49:33.762Z,21.33
2022-11-12T22:52:18.879Z,19.13
2022-11-12T22:55:04.607Z,21.38
2022-11-12T22:57:49.840Z,18.95
2022-11-12T23:00:35.058Z,18.50
2022-11-12T23:03:19.911Z,15.90
2022-11-12T23:06:06.415Z,15.90
2022-11-12T23:08:52.867Z,25.08
2022-11-12T23:11:38.464Z,16.45
2022-11-12T23:14:23.815Z,14.23
2022-11-12T23:17:08.760Z,16.83
2022-11-12T23:19:54.619Z,14.70
2022-11-12T23:22:39.486Z,18.48
2022-11-12T23:25:24.587Z,20.52
2022-11-12T23:28:10.046Z,18.00
2022-11-12T23:30:55.006Z,14.60
2022-11-12T23:33:44.378Z,15.50
2022-11-12T23:36:30.449Z,13.70
2022-11-12T23:39:15.735Z,14.60
2022-11-12T23:42:01.116Z,16.52
2022-11-12T23:44:46.517Z,13.95
2022-11-12T23:47:31.919Z,16.60
2022-11-12T23:50:17.472Z,15.80
2022-11-12T23:53:02.646Z,15.35
2022-11-12T23:55:47.875Z,15.95
2022-11-12T23:58:33.235Z,15.57
